sensor_id;sensor_type;location;lat;lon;timestamp;temperature;humidity
5786;DHT22;2919;48.630;9.000;2022-12-18T00:01:21;-12.00;99.90
5786;DHT22;2919;48.630;9.000;2022-12-18T00:03:47;-12.00;99.90
5786;DHT22;2919;48.630;9.000;2022-12-18T00:06:13;-11.90;99.90
5786;DHT22;2919;48.630;9.000;2022-12-18T00:08:39;-12.00;99.90
5786;DHT22;2919;48.630;9.000;2022-12-18T00:11:06;-12.00;99.90
5786;DHT22;2919;48.630;9.000;2022-12-18T00:13:32;-12.00;99.90
5786;DHT22;2919;48.630;9.000;2022-12-18T00:16:02;-11.90;99.90
5786;DHT22;2919;48.630;9.000;2022-12-18T00:18:28;-12.10;99.90
5786;DHT22;2919;48.630;9.000;2022-12-18T00:20:54;-12.10;99.90
5786;DHT22;2919;48.630;9.000;2022-12-18T00:23:23;-12.10;99.90
5786;DHT22;2919;48.630;9.000;2022-12-18T00:25:49;-12.20;99.90
5786;DHT22;2919;48.630;9.000;2022-12-18T00:28:14;-12.30;99.90
5786;DHT22;2919;48.630;9.000;2022-12-18T00:30:40;-12.40;99.90
5786;DHT22;2919;48.630;9.000;2022-12-18T00:33:05;-12.50;99.90
5786;DHT22;2919;48.630;9.000;2022-12-18T00:35:31;-12.50;99.90
5786;DHT22;2919;48.630;9.000;2022-12-18T00:37:57;-12.50;99.90
5786;DHT22;2919;48.630;9.000;2022-12-18T00:40:22;-12.60;99.90
5786;DHT22;2919;48.630;9.000;2022-12-18T00:42:48;-12.60;99.90
5786;DHT22;2919;48.630;9.000;2022-12-18T00:45:24;-12.50;99.90
5786;DHT22;2919;48.630;9.000;2022-12-18T00:47:50;-12.30;99.90
5786;DHT22;2919;48.630;9.000;2022-12-18T00:50:16;-12.30;99.90
5786;DHT22;2919;48.630;9.000;2022-12-18T00:52:42;-12.20;99.90
5786;DHT22;2919;48.630;9.000;2022-12-18T00:55:08;-12.30;99.90
5786;DHT22;2919;48.630;9.000;2022-12-18T00:57:34;-12.40;99.90
5786;DHT22;2919;48.630;9.000;2022-12-18T01:00:00;-12.50;99.90
5786;DHT22;2919;48.630;9.000;2022-12-18T01:02:25;-12.50;99.90
5786;DHT22;2919;48.630;9.000;2022-12-18T01:04:51;-12.50;99.90
5786;DHT22;2919;48.630;9.000;2022-12-18T01:07:17;-12.50;99.90
5786;DHT22;2919;48.630;9.000;2022-12-18T01:09:42;-12.50;99.90
5786;DHT22;2919;48.630;9.000;2022-12-18T01:12:08;-12.40;99.90
5786;DHT22;2919;48.630;9.000;2022-12-18T01:14:33;-12.30;99.90
5786;DHT22;2919;48.630;9.000;2022-12-18T01:16:59;-12.00;99.90
5786;DHT22;2919;48.630;9.000;2022-12-18T01:19:25;-12.10;99.90
5786;DHT22;2919;48.630;9.000;2022-12-18T01:21:50;-12.20;99.90
5786;DHT22;2919;48.630;9.000;2022-12-18T01:24:16;-12.20;99.90
5786;DHT22;2919;48.630;9.000;2022-12-18T01:26:41;-12.20;99.90
5786;DHT22;2919;48.630;9.000;2022-12-18T01:29:07;-12.10;99.90
5786;DHT22;2919;48.630;9.000;2022-12-18T01:31:33;-12.10;99.90
5786;DHT22;2919;48.630;9.000;2022-12-18T01:34:04;-12.10;99.90
5786;DHT22;2919;48.630;9.000;2022-12-18T01:36:39;-12.30;99.90
5786;DHT22;2919;48.630;9.000;2022-12-18T01:39:09;-12.20;99.90
5786;DHT22;2919;48.630;9.000;2022-12-18T01:41:36;-12.30;99.90
5786;DHT22;2919;48.630;9.000;2022-12-18T01:47:17;-12.40;99.90
5786;DHT22;2919;48.630;9.000;2022-12-18T01:49:44;-12.40;99.90
5786;DHT22;2919;48.630;9.000;2022-12-18T01:52:09;-12.40;99.90
5786;DHT22;2919;48.630;9.000;2022-12-18T01:54:35;-12.40;99.90
5786;DHT22;2919;48.630;9.000;2022-12-18T01:57:00;-12.30;99.90
5786;DHT22;2919;48.630;9.000;2022-12-18T01:59:28;-12.20;99.90
5786;DHT22;2919;48.630;9.000;2022-12-18T02:01:56;-12.10;99.90
5786;DHT22;2919;48.630;9.000;2022-12-18T02:04:25;-12.10;99.90
5786;DHT22;2919;48.630;9.000;2022-12-18T02:09:34;-11.90;99.90
5786;DHT22;2919;48.630;9.000;2022-12-18T02:12:05;-11.90;99.90
5786;DHT22;2919;48.630;9.000;2022-12-18T02:20:04;-11.80;99.90
5786;DHT22;2919;48.630;9.000;2022-12-18T02:28:35;-11.70;99.90
5786;DHT22;2919;48.630;9.000;2022-12-18T02:31:03;-11.60;99.90
5786;DHT22;2919;48.630;9.000;2022-12-18T02:33:31;-11.40;99.90
5786;DHT22;2919;48.630;9.000;2022-12-18T02:35:59;-11.40;99.90
5786;DHT22;2919;48.630;9.000;2022-12-18T02:38:25;-11.30;99.90
5786;DHT22;2919;48.630;9.000;2022-12-18T02:40:53;-11.10;99.90
5786;DHT22;2919;48.630;9.000;2022-12-18T02:43:19;-10.90;99.90
5786;DHT22;2919;48.630;9.000;2022-12-18T02:45:55;-10.70;99.90
5786;DHT22;2919;48.630;9.000;2022-12-18T02:48:27;-10.40;99.90
5786;DHT22;2919;48.630;9.000;2022-12-18T02:50:59;-10.10;99.90
5786;DHT22;2919;48.630;9.000;2022-12-18T02:53:36;-9.90;99.90
5786;DHT22;2919;48.630;9.000;2022-12-18T03:01:28;-9.50;99.90
5786;DHT22;2919;48.630;9.000;2022-12-18T03:04:01;-9.40;99.90
5786;DHT22;2919;48.630;9.000;2022-12-18T03:06:37;-9.40;99.90
5786;DHT22;2919;48.630;9.000;2022-12-18T03:09:15;-9.40;99.90
5786;DHT22;2919;48.630;9.000;2022-12-18T03:11:46;-9.40;99.90
5786;DHT22;2919;48.630;9.000;2022-12-18T03:14:34;-9.40;99.90
5786;DHT22;2919;48.630;9.000;2022-12-18T03:17:05;-9.30;99.90
5786;DHT22;2919;48.630;9.000;2022-12-18T03:19:33;-9.30;99.90
5786;DHT22;2919;48.630;9.000;2022-12-18T03:22:02;-9.30;99.90
5786;DHT22;2919;48.630;9.000;2022-12-18T03:24:29;-9.20;99.90
5786;DHT22;2919;48.630;9.000;2022-12-18T03:27:02;-9.30;99.90
5786;DHT22;2919;48.630;9.000;2022-12-18T03:32:08;-9.30;99.90
5786;DHT22;2919;48.630;9.000;2022-12-18T03:34:38;-9.40;99.90
5786;DHT22;2919;48.630;9.000;2022-12-18T03:37:05;-9.40;99.90
5786;DHT22;2919;48.630;9.000;2022-12-18T03:39:31;-9.30;99.90
5786;DHT22;2919;48.630;9.000;2022-12-18T03:42:25;-9.40;99.90
5786;DHT22;2919;48.630;9.000;2022-12-18T03:45:02;-9.40;99.90
5786;DHT22;2919;48.630;9.000;2022-12-18T03:47:38;-9.40;99.90
5786;DHT22;2919;48.630;9.000;2022-12-18T03:50:16;-9.50;99.90
5786;DHT22;2919;48.630;9.000;2022-12-18T03:52:57;-9.50;99.90
5786;DHT22;2919;48.630;9.000;2022-12-18T03:55:25;-9.50;99.90
5786;DHT22;2919;48.630;9.000;2022-12-18T03:57:53;-9.60;99.90
5786;DHT22;2919;48.630;9.000;2022-12-18T04:00:20;-9.60;99.90
5786;DHT22;2919;48.630;9.000;2022-12-18T04:02:51;-9.70;99.90
5786;DHT22;2919;48.630;9.000;2022-12-18T04:05:18;-9.70;99.90
5786;DHT22;2919;48.630;9.000;2022-12-18T04:07:46;-9.70;99.90
5786;DHT22;2919;48.630;9.000;2022-12-18T04:10:12;-9.70;99.90
5786;DHT22;2919;48.630;9.000;2022-12-18T04:12:39;-9.70;99.90
5786;DHT22;2919;48.630;9.000;2022-12-18T04:15:05;-9.60;99.90
5786;DHT22;2919;48.630;9.000;2022-12-18T04:17:31;-9.60;99.90
5786;DHT22;2919;48.630;9.000;2022-12-18T04:19:57;-9.60;99.90
5786;DHT22;2919;48.630;9.000;2022-12-18T04:22:22;-9.60;99.90
5786;DHT22;2919;48.630;9.000;2022-12-18T04:24:48;-9.60;99.90
5786;DHT22;2919;48.630;9.000;2022-12-18T04:27:13;-9.50;99.90
5786;DHT22;2919;48.630;9.000;2022-12-18T04:29:39;-9.50;99.90
5786;DHT22;2919;48.630;9.000;2022-12-18T04:32:05;-9.50;99.90
5786;DHT22;2919;48.630;9.000;2022-12-18T04:34:30;-9.60;99.90
5786;DHT22;2919;48.630;9.000;2022-12-18T04:36:56;-9.50;99.90
5786;DHT22;2919;48.630;9.000;2022-12-18T04:39:22;-9.50;99.90
5786;DHT22;2919;48.630;9.000;2022-12-18T04:41:47;-9.50;99.90
5786;DHT22;2919;48.630;9.000;2022-12-18T04:44:13;-9.50;99.90
5786;DHT22;2919;48.630;9.000;2022-12-18T04:46:38;-9.40;99.90
5786;DHT22;2919;48.630;9.000;2022-12-18T04:49:04;-9.40;99.90
5786;DHT22;2919;48.630;9.000;2022-12-18T04:51:30;-9.40;99.90
5786;DHT22;2919;48.630;9.000;2022-12-18T04:53:55;-9.40;99.90
5786;DHT22;2919;48.630;9.000;2022-12-18T04:56:21;-9.40;99.90
5786;DHT22;2919;48.630;9.000;2022-12-18T04:58:47;-9.40;99.90
5786;DHT22;2919;48.630;9.000;2022-12-18T05:01:14;-9.50;99.90
5786;DHT22;2919;48.630;9.000;2022-12-18T05:03:40;-9.50;99.90
5786;DHT22;2919;48.630;9.000;2022-12-18T05:06:06;-9.50;99.90
5786;DHT22;2919;48.630;9.000;2022-12-18T05:08:33;-9.50;99.90
5786;DHT22;2919;48.630;9.000;2022-12-18T05:11:07;-9.60;99.90
5786;DHT22;2919;48.630;9.000;2022-12-18T05:13:34;-9.60;99.90
5786;DHT22;2919;48.630;9.000;2022-12-18T05:16:00;-9.60;99.90
5786;DHT22;2919;48.630;9.000;2022-12-18T05:18:26;-9.70;99.90
5786;DHT22;2919;48.630;9.000;2022-12-18T05:20:52;-9.70;99.90
5786;DHT22;2919;48.630;9.000;2022-12-18T05:23:19;-9.80;99.90
5786;DHT22;2919;48.630;9.000;2022-12-18T05:26:04;-9.90;99.90
5786;DHT22;2919;48.630;9.000;2022-12-18T05:28:32;-9.90;99.90
5786;DHT22;2919;48.630;9.000;2022-12-18T05:31:00;-10.00;99.90
5786;DHT22;2919;48.630;9.000;2022-12-18T05:33:28;-10.00;99.90
5786;DHT22;2919;48.630;9.000;2022-12-18T05:35:56;-10.00;99.90
5786;DHT22;2919;48.630;9.000;2022-12-18T05:38:23;-10.00;99.90
5786;DHT22;2919;48.630;9.000;2022-12-18T05:40:50;-10.10;99.90
5786;DHT22;2919;48.630;9.000;2022-12-18T05:43:17;-10.20;99.90
5786;DHT22;2919;48.630;9.000;2022-12-18T05:45:42;-10.30;99.90
5786;DHT22;2919;48.630;9.000;2022-12-18T05:48:08;-10.30;99.90
5786;DHT22;2919;48.630;9.000;2022-12-18T05:50:38;-10.20;99.90
5786;DHT22;2919;48.630;9.000;2022-12-18T05:53:05;-10.20;99.90
5786;DHT22;2919;48.630;9.000;2022-12-18T05:55:34;-10.30;99.90
5786;DHT22;2919;48.630;9.000;2022-12-18T05:58:00;-10.30;99.90
5786;DHT22;2919;48.630;9.000;2022-12-18T06:00:26;-10.40;99.90
5786;DHT22;2919;48.630;9.000;2022-12-18T06:02:52;-10.40;99.90
5786;DHT22;2919;48.630;9.000;2022-12-18T06:05:18;-10.40;99.90
5786;DHT22;2919;48.630;9.000;2022-12-18T06:07:43;-10.40;99.90
5786;DHT22;2919;48.630;9.000;2022-12-18T06:10:09;-10.40;99.90
5786;DHT22;2919;48.630;9.000;2022-12-18T06:12:35;-10.50;99.90
5786;DHT22;2919;48.630;9.000;2022-12-18T06:15:00;-10.60;99.90
5786;DHT22;2919;48.630;9.000;2022-12-18T06:17:30;-10.80;99.90
5786;DHT22;2919;48.630;9.000;2022-12-18T06:19:56;-11.00;99.90
5786;DHT22;2919;48.630;9.000;2022-12-18T06:22:21;-11.00;99.90
5786;DHT22;2919;48.630;9.000;2022-12-18T06:24:47;-11.00;99.90
5786;DHT22;2919;48.630;9.000;2022-12-18T06:27:13;-11.10;99.90
5786;DHT22;2919;48.630;9.000;2022-12-18T06:29:39;-11.20;99.90
5786;DHT22;2919;48.630;9.000;2022-12-18T06:32:05;-11.30;99.90
5786;DHT22;2919;48.630;9.000;2022-12-18T06:34:31;-11.30;99.90
5786;DHT22;2919;48.630;9.000;2022-12-18T06:36:56;-11.30;99.90
5786;DHT22;2919;48.630;9.000;2022-12-18T06:39:22;-11.40;99.90
5786;DHT22;2919;48.630;9.000;2022-12-18T06:41:47;-11.30;99.90
5786;DHT22;2919;48.630;9.000;2022-12-18T06:44:13;-11.30;99.90
5786;DHT22;2919;48.630;9.000;2022-12-18T06:46:39;-11.30;99.90
5786;DHT22;2919;48.630;9.000;2022-12-18T06:49:04;-11.40;99.90
5786;DHT22;2919;48.630;9.000;2022-12-18T06:51:30;-11.40;99.90
5786;DHT22;2919;48.630;9.000;2022-12-18T06:53:55;-11.30;99.90
5786;DHT22;2919;48.630;9.000;2022-12-18T06:56:21;-11.30;99.90
5786;DHT22;2919;48.630;9.000;2022-12-18T06:58:47;-11.30;99.90
5786;DHT22;2919;48.630;9.000;2022-12-18T07:01:13;-11.40;99.90
5786;DHT22;2919;48.630;9.000;2022-12-18T07:03:40;-11.50;99.90
5786;DHT22;2919;48.630;9.000;2022-12-18T07:06:05;-11.50;99.90
5786;DHT22;2919;48.630;9.000;2022-12-18T07:08:32;-11.50;99.90
5786;DHT22;2919;48.630;9.000;2022-12-18T07:10:58;-11.50;99.90
5786;DHT22;2919;48.630;9.000;2022-12-18T07:13:23;-11.60;99.90
5786;DHT22;2919;48.630;9.000;2022-12-18T07:15:49;-11.70;99.90
5786;DHT22;2919;48.630;9.000;2022-12-18T07:18:15;-11.70;99.90
5786;DHT22;2919;48.630;9.000;2022-12-18T07:20:40;-11.60;99.90
5786;DHT22;2919;48.630;9.000;2022-12-18T07:23:06;-11.50;99.90
5786;DHT22;2919;48.630;9.000;2022-12-18T07:25:35;-11.40;99.90
5786;DHT22;2919;48.630;9.000;2022-12-18T07:28:01;-11.40;99.90
5786;DHT22;2919;48.630;9.000;2022-12-18T07:30:27;-11.40;99.90
5786;DHT22;2919;48.630;9.000;2022-12-18T07:32:52;-11.40;99.90
5786;DHT22;2919;48.630;9.000;2022-12-18T07:35:18;-11.40;99.90
5786;DHT22;2919;48.630;9.000;2022-12-18T07:37:44;-11.30;99.90
5786;DHT22;2919;48.630;9.000;2022-12-18T07:40:10;-11.20;99.90
5786;DHT22;2919;48.630;9.000;2022-12-18T07:42:36;-11.20;99.90
5786;DHT22;2919;48.630;9.000;2022-12-18T07:45:03;-11.20;99.90
5786;DHT22;2919;48.630;9.000;2022-12-18T07:47:29;-11.20;99.90
5786;DHT22;2919;48.630;9.000;2022-12-18T07:49:54;-11.20;99.90
5786;DHT22;2919;48.630;9.000;2022-12-18T07:52:21;-11.30;99.90
5786;DHT22;2919;48.630;9.000;2022-12-18T07:54:46;-11.30;99.90
5786;DHT22;2919;48.630;9.000;2022-12-18T07:57:14;-11.30;99.90
5786;DHT22;2919;48.630;9.000;2022-12-18T07:59:41;-11.20;99.90
5786;DHT22;2919;48.630;9.000;2022-12-18T08:02:06;-11.20;99.90
5786;DHT22;2919;48.630;9.000;2022-12-18T08:04:35;-11.10;99.90
5786;DHT22;2919;48.630;9.000;2022-12-18T08:07:00;-11.20;99.90
5786;DHT22;2919;48.630;9.000;2022-12-18T08:09:26;-11.00;99.90
5786;DHT22;2919;48.630;9.000;2022-12-18T08:11:51;-10.90;99.90
5786;DHT22;2919;48.630;9.000;2022-12-18T08:14:17;-10.80;99.90
5786;DHT22;2919;48.630;9.000;2022-12-18T08:16:43;-10.70;99.90
5786;DHT22;2919;48.630;9.000;2022-12-18T08:19:08;-10.60;99.90
5786;DHT22;2919;48.630;9.000;2022-12-18T08:21:34;-10.60;99.90
5786;DHT22;2919;48.630;9.000;2022-12-18T08:24:00;-10.50;99.90
5786;DHT22;2919;48.630;9.000;2022-12-18T08:26:29;-10.40;99.90
5786;DHT22;2919;48.630;9.000;2022-12-18T08:28:56;-10.30;99.90
5786;DHT22;2919;48.630;9.000;2022-12-18T08:31:23;-10.30;99.90
5786;DHT22;2919;48.630;9.000;2022-12-18T08:33:51;-10.20;99.90
5786;DHT22;2919;48.630;9.000;2022-12-18T08:36:18;-10.00;99.90
5786;DHT22;2919;48.630;9.000;2022-12-18T08:38:43;-9.90;99.90
5786;DHT22;2919;48.630;9.000;2022-12-18T08:41:11;-9.80;99.90
5786;DHT22;2919;48.630;9.000;2022-12-18T08:43:37;-9.60;99.90
5786;DHT22;2919;48.630;9.000;2022-12-18T08:46:22;-9.40;99.90
5786;DHT22;2919;48.630;9.000;2022-12-18T08:48:50;-9.20;99.90
5786;DHT22;2919;48.630;9.000;2022-12-18T08:51:17;-9.00;99.90
5786;DHT22;2919;48.630;9.000;2022-12-18T08:53:43;-8.70;99.90
5786;DHT22;2919;48.630;9.000;2022-12-18T08:56:10;-8.60;99.90
5786;DHT22;2919;48.630;9.000;2022-12-18T08:58:35;-8.40;99.90
5786;DHT22;2919;48.630;9.000;2022-12-18T09:01:03;-8.20;99.90
5786;DHT22;2919;48.630;9.000;2022-12-18T09:03:28;-8.00;99.90
5786;DHT22;2919;48.630;9.000;2022-12-18T09:05:54;-7.90;99.90
5786;DHT22;2919;48.630;9.000;2022-12-18T09:08:20;-7.70;99.90
5786;DHT22;2919;48.630;9.000;2022-12-18T09:10:48;-7.60;99.90
5786;DHT22;2919;48.630;9.000;2022-12-18T09:13:15;-7.60;99.90
5786;DHT22;2919;48.630;9.000;2022-12-18T09:15:45;-7.50;99.90
5786;DHT22;2919;48.630;9.000;2022-12-18T09:18:11;-7.50;99.90
5786;DHT22;2919;48.630;9.000;2022-12-18T09:20:38;-7.40;99.90
5786;DHT22;2919;48.630;9.000;2022-12-18T09:23:04;-7.30;99.90
5786;DHT22;2919;48.630;9.000;2022-12-18T09:25:31;-7.20;99.90
5786;DHT22;2919;48.630;9.000;2022-12-18T09:28:02;-7.00;99.90
5786;DHT22;2919;48.630;9.000;2022-12-18T09:30:27;-6.90;99.90
5786;DHT22;2919;48.630;9.000;2022-12-18T09:32:53;-6.80;99.90
5786;DHT22;2919;48.630;9.000;2022-12-18T09:35:19;-6.60;99.90
5786;DHT22;2919;48.630;9.000;2022-12-18T09:37:44;-6.50;99.90
5786;DHT22;2919;48.630;9.000;2022-12-18T09:40:16;-6.30;99.90
5786;DHT22;2919;48.630;9.000;2022-12-18T09:42:46;-6.20;99.90
5786;DHT22;2919;48.630;9.000;2022-12-18T09:45:14;-6.00;99.90
5786;DHT22;2919;48.630;9.000;2022-12-18T09:47:43;-5.90;99.90
5786;DHT22;2919;48.630;9.000;2022-12-18T09:52:48;-5.50;99.90
5786;DHT22;2919;48.630;9.000;2022-12-18T09:55:40;-5.30;99.90
5786;DHT22;2919;48.630;9.000;2022-12-18T09:58:26;-5.20;99.90
5786;DHT22;2919;48.630;9.000;2022-12-18T10:00:54;-5.10;99.90
5786;DHT22;2919;48.630;9.000;2022-12-18T10:03:20;-4.80;99.90
5786;DHT22;2919;48.630;9.000;2022-12-18T10:12:21;-4.20;99.90
5786;DHT22;2919;48.630;9.000;2022-12-18T10:15:15;-4.00;99.90
5786;DHT22;2919;48.630;9.000;2022-12-18T10:18:05;-3.90;99.90
5786;DHT22;2919;48.630;9.000;2022-12-18T10:20:45;-3.80;99.90
5786;DHT22;2919;48.630;9.000;2022-12-18T10:26:08;-3.40;99.90
5786;DHT22;2919;48.630;9.000;2022-12-18T10:28:39;-3.30;99.90
5786;DHT22;2919;48.630;9.000;2022-12-18T10:31:16;-3.00;99.90
5786;DHT22;2919;48.630;9.000;2022-12-18T10:33:43;-2.90;99.90
5786;DHT22;2919;48.630;9.000;2022-12-18T10:36:08;-2.60;99.90
5786;DHT22;2919;48.630;9.000;2022-12-18T10:38:34;-2.60;99.90
5786;DHT22;2919;48.630;9.000;2022-12-18T10:41:03;-2.50;99.90
5786;DHT22;2919;48.630;9.000;2022-12-18T10:43:30;-2.50;99.90
5786;DHT22;2919;48.630;9.000;2022-12-18T10:51:05;-2.20;99.90
5786;DHT22;2919;48.630;9.000;2022-12-18T10:53:33;-2.10;99.90
5786;DHT22;2919;48.630;9.000;2022-12-18T10:55:59;-2.00;99.90
5786;DHT22;2919;48.630;9.000;2022-12-18T10:58:32;-1.90;99.90
5786;DHT22;2919;48.630;9.000;2022-12-18T11:06:20;-1.90;99.90
5786;DHT22;2919;48.630;9.000;2022-12-18T11:09:05;-2.00;99.90
5786;DHT22;2919;48.630;9.000;2022-12-18T11:11:32;-1.90;99.90
5786;DHT22;2919;48.630;9.000;2022-12-18T11:14:06;-1.90;99.90
5786;DHT22;2919;48.630;9.000;2022-12-18T11:16:44;-1.90;99.90
5786;DHT22;2919;48.630;9.000;2022-12-18T11:19:24;-1.80;99.90
5786;DHT22;2919;48.630;9.000;2022-12-18T11:21:51;-1.50;99.90
5786;DHT22;2919;48.630;9.000;2022-12-18T11:26:56;-1.30;99.90
5786;DHT22;2919;48.630;9.000;2022-12-18T11:35:10;-1.60;99.90
5786;DHT22;2919;48.630;9.000;2022-12-18T11:37:39;-1.80;99.90
5786;DHT22;2919;48.630;9.000;2022-12-18T11:40:16;-1.90;99.90
5786;DHT22;2919;48.630;9.000;2022-12-18T11:42:58;-1.80;99.90
5786;DHT22;2919;48.630;9.000;2022-12-18T11:45:29;-1.80;99.90
5786;DHT22;2919;48.630;9.000;2022-12-18T11:48:12;-1.70;99.90
5786;DHT22;2919;48.630;9.000;2022-12-18T11:50:53;-1.70;99.90
5786;DHT22;2919;48.630;9.000;2022-12-18T11:53:20;-1.50;99.90
5786;DHT22;2919;48.630;9.000;2022-12-18T11:58:47;-1.50;99.90
5786;DHT22;2919;48.630;9.000;2022-12-18T12:01:39;-1.50;99.90
5786;DHT22;2919;48.630;9.000;2022-12-18T12:26:34;-2.10;99.90
5786;DHT22;2919;48.630;9.000;2022-12-18T12:31:54;-2.20;99.90
5786;DHT22;2919;48.630;9.000;2022-12-18T12:34:26;-2.30;99.90
5786;DHT22;2919;48.630;9.000;2022-12-18T12:39:46;-2.30;99.90
5786;DHT22;2919;48.630;9.000;2022-12-18T12:42:44;-2.30;99.90
5786;DHT22;2919;48.630;9.000;2022-12-18T12:48:43;-2.30;99.90
5786;DHT22;2919;48.630;9.000;2022-12-18T12:51:26;-2.30;99.90
5786;DHT22;2919;48.630;9.000;2022-12-18T12:53:55;-2.30;99.90
5786;DHT22;2919;48.630;9.000;2022-12-18T12:56:22;-2.30;99.90
5786;DHT22;2919;48.630;9.000;2022-12-18T13:01:41;-2.40;99.90
5786;DHT22;2919;48.630;9.000;2022-12-18T13:04:35;-2.40;99.90
5786;DHT22;2919;48.630;9.000;2022-12-18T13:07:15;-2.40;99.90
5786;DHT22;2919;48.630;9.000;2022-12-18T13:23:32;-2.20;99.90
5786;DHT22;2919;48.630;9.000;2022-12-18T13:34:20;-2.30;99.90
5786;DHT22;2919;48.630;9.000;2022-12-18T13:36:46;-2.30;99.90
5786;DHT22;2919;48.630;9.000;2022-12-18T13:41:45;-2.40;99.90
5786;DHT22;2919;48.630;9.000;2022-12-18T13:46:51;-2.40;99.90
5786;DHT22;2919;48.630;9.000;2022-12-18T13:49:38;-2.40;99.90
5786;DHT22;2919;48.630;9.000;2022-12-18T13:52:35;-2.40;99.90
5786;DHT22;2919;48.630;9.000;2022-12-18T13:55:05;-2.40;99.90
5786;DHT22;2919;48.630;9.000;2022-12-18T13:57:34;-2.40;99.90
5786;DHT22;2919;48.630;9.000;2022-12-18T14:02:45;-2.60;99.90
5786;DHT22;2919;48.630;9.000;2022-12-18T14:05:27;-2.60;99.90
5786;DHT22;2919;48.630;9.000;2022-12-18T14:07:54;-2.60;99.90
5786;DHT22;2919;48.630;9.000;2022-12-18T14:10:20;-2.60;99.90
5786;DHT22;2919;48.630;9.000;2022-12-18T14:12:50;-2.60;99.90
5786;DHT22;2919;48.630;9.000;2022-12-18T14:20:37;-2.90;99.90
5786;DHT22;2919;48.630;9.000;2022-12-18T14:23:04;-2.90;99.90
5786;DHT22;2919;48.630;9.000;2022-12-18T14:25:30;-3.00;99.90
5786;DHT22;2919;48.630;9.000;2022-12-18T14:28:13;-3.00;99.90
5786;DHT22;2919;48.630;9.000;2022-12-18T14:30:43;-3.00;99.90
5786;DHT22;2919;48.630;9.000;2022-12-18T14:33:10;-2.90;99.90
5786;DHT22;2919;48.630;9.000;2022-12-18T14:38:26;-3.00;99.90
5786;DHT22;2919;48.630;9.000;2022-12-18T14:40:57;-3.10;99.90
5786;DHT22;2919;48.630;9.000;2022-12-18T14:43:24;-3.10;99.90
5786;DHT22;2919;48.630;9.000;2022-12-18T14:45:50;-3.20;99.90
5786;DHT22;2919;48.630;9.000;2022-12-18T14:56:02;-3.50;99.90
5786;DHT22;2919;48.630;9.000;2022-12-18T14:58:28;-3.50;99.90
5786;DHT22;2919;48.630;9.000;2022-12-18T15:00:54;-3.50;99.90
5786;DHT22;2919;48.630;9.000;2022-12-18T15:03:21;-3.60;99.90
5786;DHT22;2919;48.630;9.000;2022-12-18T15:05:47;-3.60;99.90
5786;DHT22;2919;48.630;9.000;2022-12-18T15:08:45;-3.70;99.90
5786;DHT22;2919;48.630;9.000;2022-12-18T15:13:59;-3.90;99.90
5786;DHT22;2919;48.630;9.000;2022-12-18T15:16:26;-3.90;99.90
5786;DHT22;2919;48.630;9.000;2022-12-18T15:18:52;-4.00;99.90
5786;DHT22;2919;48.630;9.000;2022-12-18T15:21:19;-4.10;99.90
5786;DHT22;2919;48.630;9.000;2022-12-18T15:23:52;-4.10;99.90
5786;DHT22;2919;48.630;9.000;2022-12-18T15:26:20;-4.20;99.90
5786;DHT22;2919;48.630;9.000;2022-12-18T15:28:51;-4.20;99.90
5786;DHT22;2919;48.630;9.000;2022-12-18T15:34:10;-4.30;99.90
5786;DHT22;2919;48.630;9.000;2022-12-18T15:36:37;-4.40;99.90
5786;DHT22;2919;48.630;9.000;2022-12-18T15:39:04;-4.40;99.90
5786;DHT22;2919;48.630;9.000;2022-12-18T15:41:31;-4.50;99.90
5786;DHT22;2919;48.630;9.000;2022-12-18T15:43:59;-4.50;99.90
5786;DHT22;2919;48.630;9.000;2022-12-18T15:46:24;-4.50;99.90
5786;DHT22;2919;48.630;9.000;2022-12-18T15:48:55;-4.60;99.90
5786;DHT22;2919;48.630;9.000;2022-12-18T15:51:30;-4.60;99.90
5786;DHT22;2919;48.630;9.000;2022-12-18T15:53:59;-4.70;99.90
5786;DHT22;2919;48.630;9.000;2022-12-18T15:56:26;-4.70;99.90
5786;DHT22;2919;48.630;9.000;2022-12-18T15:59:18;-4.70;99.90
5786;DHT22;2919;48.630;9.000;2022-12-18T16:01:46;-4.70;99.90
5786;DHT22;2919;48.630;9.000;2022-12-18T16:04:14;-4.80;99.90
5786;DHT22;2919;48.630;9.000;2022-12-18T16:06:40;-4.80;99.90
5786;DHT22;2919;48.630;9.000;2022-12-18T16:09:06;-4.80;99.90
5786;DHT22;2919;48.630;9.000;2022-12-18T16:11:33;-4.80;99.90
5786;DHT22;2919;48.630;9.000;2022-12-18T16:16:40;-4.80;99.90
5786;DHT22;2919;48.630;9.000;2022-12-18T16:19:07;-4.80;99.90
5786;DHT22;2919;48.630;9.000;2022-12-18T16:21:32;-4.80;99.90
5786;DHT22;2919;48.630;9.000;2022-12-18T16:23:58;-4.80;99.90
5786;DHT22;2919;48.630;9.000;2022-12-18T16:26:23;-4.70;99.90
5786;DHT22;2919;48.630;9.000;2022-12-18T16:28:49;-4.70;99.90
5786;DHT22;2919;48.630;9.000;2022-12-18T16:31:15;-4.70;99.90
5786;DHT22;2919;48.630;9.000;2022-12-18T16:33:40;-4.70;99.90
5786;DHT22;2919;48.630;9.000;2022-12-18T16:36:06;-4.60;99.90
5786;DHT22;2919;48.630;9.000;2022-12-18T16:38:33;-4.60;99.90
5786;DHT22;2919;48.630;9.000;2022-12-18T16:40:58;-4.60;99.90
5786;DHT22;2919;48.630;9.000;2022-12-18T16:43:43;-4.60;99.90
5786;DHT22;2919;48.630;9.000;2022-12-18T16:46:08;-4.60;99.90
5786;DHT22;2919;48.630;9.000;2022-12-18T16:48:34;-4.50;99.90
5786;DHT22;2919;48.630;9.000;2022-12-18T16:51:02;-4.50;99.90
5786;DHT22;2919;48.630;9.000;2022-12-18T16:53:28;-4.50;99.90
5786;DHT22;2919;48.630;9.000;2022-12-18T16:55:54;-4.50;99.90
5786;DHT22;2919;48.630;9.000;2022-12-18T16:58:20;-4.50;99.90
5786;DHT22;2919;48.630;9.000;2022-12-18T17:00:46;-4.50;99.90
5786;DHT22;2919;48.630;9.000;2022-12-18T17:03:11;-4.50;99.90
5786;DHT22;2919;48.630;9.000;2022-12-18T17:05:37;-4.40;99.90
5786;DHT22;2919;48.630;9.000;2022-12-18T17:08:02;-4.40;99.90
5786;DHT22;2919;48.630;9.000;2022-12-18T17:10:28;-4.30;99.90
5786;DHT22;2919;48.630;9.000;2022-12-18T17:12:54;-4.30;99.90
5786;DHT22;2919;48.630;9.000;2022-12-18T17:15:19;-4.20;99.90
5786;DHT22;2919;48.630;9.000;2022-12-18T17:17:45;-4.30;99.90
5786;DHT22;2919;48.630;9.000;2022-12-18T17:20:10;-4.30;99.90
5786;DHT22;2919;48.630;9.000;2022-12-18T17:22:36;-4.30;99.90
5786;DHT22;2919;48.630;9.000;2022-12-18T17:25:02;-4.20;99.90
5786;DHT22;2919;48.630;9.000;2022-12-18T17:27:28;-4.20;99.90
5786;DHT22;2919;48.630;9.000;2022-12-18T17:29:53;-4.20;99.90
5786;DHT22;2919;48.630;9.000;2022-12-18T17:32:19;-4.20;99.90
5786;DHT22;2919;48.630;9.000;2022-12-18T17:34:45;-4.20;99.90
5786;DHT22;2919;48.630;9.000;2022-12-18T17:37:11;-4.20;99.90
5786;DHT22;2919;48.630;9.000;2022-12-18T17:39:36;-4.20;99.90
5786;DHT22;2919;48.630;9.000;2022-12-18T17:42:04;-4.10;99.90
5786;DHT22;2919;48.630;9.000;2022-12-18T17:44:31;-4.10;99.90
5786;DHT22;2919;48.630;9.000;2022-12-18T17:46:58;-4.10;99.90
5786;DHT22;2919;48.630;9.000;2022-12-18T17:49:24;-4.10;99.90
5786;DHT22;2919;48.630;9.000;2022-12-18T17:51:49;-4.10;99.90
5786;DHT22;2919;48.630;9.000;2022-12-18T17:54:15;-4.10;99.90
5786;DHT22;2919;48.630;9.000;2022-12-18T17:56:41;-4.10;99.90
5786;DHT22;2919;48.630;9.000;2022-12-18T17:59:07;-4.10;99.90
5786;DHT22;2919;48.630;9.000;2022-12-18T18:01:33;-4.10;99.90
5786;DHT22;2919;48.630;9.000;2022-12-18T18:03:59;-4.10;99.90
5786;DHT22;2919;48.630;9.000;2022-12-18T18:06:26;-4.10;99.90
5786;DHT22;2919;48.630;9.000;2022-12-18T18:08:52;-4.00;99.90
5786;DHT22;2919;48.630;9.000;2022-12-18T18:11:21;-4.00;99.90
5786;DHT22;2919;48.630;9.000;2022-12-18T18:14:11;-4.00;99.90
5786;DHT22;2919;48.630;9.000;2022-12-18T18:16:40;-4.00;99.90
5786;DHT22;2919;48.630;9.000;2022-12-18T18:19:08;-4.10;99.90
5786;DHT22;2919;48.630;9.000;2022-12-18T18:21:38;-4.10;99.90
5786;DHT22;2919;48.630;9.000;2022-12-18T18:24:04;-4.20;99.90
5786;DHT22;2919;48.630;9.000;2022-12-18T18:26:31;-4.20;99.90
5786;DHT22;2919;48.630;9.000;2022-12-18T18:28:58;-4.20;99.90
5786;DHT22;2919;48.630;9.000;2022-12-18T18:31:25;-4.10;99.90
5786;DHT22;2919;48.630;9.000;2022-12-18T18:33:51;-4.10;99.90